Birch River, West Virginia
Current Conditions -  °F | °C
As of 1:15 AM on Sunday 23 Nov 2014 (Local Time) from KW22 Reporting Station
Broken Clouds Broken Clouds  
Wind Chill:   Ceiling: 9000
Heat Index:   Visibility: 10mi
Dew Point: -7°   Wind: 5mph
Humidity: 32%   Direction: 180°S
Pressure: 30.14"   Gusts: NA
Location:  38.5°N, 80.75°W
Report Text: KW22 230615Z AUTO 18004KT 10SM BKN090 09/M07 A3014 RMK AO2
Loading
Personal Weather Stations






























Interactive Weather Map New forecast layout! Learn more

10-Day Weather Forecast

Advertisements
Track Severe Weather on mobile